sensor_id;sensor_type;location;lat;lon;timestamp;pressure;altitude;pressure_sealevel;temperature;humidity
14232;BME280;7200;52.194;9.900;2023-08-01T00:00:59;98759.47;;;19.06;100.00
14232;BME280;7200;52.194;9.900;2023-08-01T00:03:24;98759.44;;;18.89;100.00
14232;BME280;7200;52.194;9.900;2023-08-01T00:05:50;98777.03;;;18.91;100.00
14232;BME280;7200;52.194;9.900;2023-08-01T00:08:15;98780.72;;;19.08;100.00
14232;BME280;7200;52.194;9.900;2023-08-01T00:10:41;98779.50;;;19.02;100.00
14232;BME280;7200;52.194;9.900;2023-08-01T00:13:06;98771.63;;;19.01;100.00
14232;BME280;7200;52.194;9.900;2023-08-01T00:15:32;98760.03;;;19.10;100.00
14232;BME280;7200;52.194;9.900;2023-08-01T00:17:57;98763.53;;;19.11;100.00
14232;BME280;7200;52.194;9.900;2023-08-01T00:20:23;98754.19;;;19.15;100.00
14232;BME280;7200;52.194;9.900;2023-08-01T00:22:48;98742.44;;;19.08;100.00
14232;BME280;7200;52.194;9.900;2023-08-01T00:25:13;98730.75;;;19.09;100.00
14232;BME280;7200;52.194;9.900;2023-08-01T00:27:39;98732.44;;;19.10;100.00
14232;BME280;7200;52.194;9.900;2023-08-01T00:30:04;98733.94;;;18.94;100.00
14232;BME280;7200;52.194;9.900;2023-08-01T00:32:31;98724.41;;;18.92;100.00
14232;BME280;7200;52.194;9.900;2023-08-01T00:34:56;98724.34;;;19.01;100.00
14232;BME280;7200;52.194;9.900;2023-08-01T00:37:21;98715.81;;;19.16;100.00
14232;BME280;7200;52.194;9.900;2023-08-01T00:39:46;98704.78;;;19.01;100.00
14232;BME280;7200;52.194;9.900;2023-08-01T00:42:12;98702.44;;;19.16;100.00
14232;BME280;7200;52.194;9.900;2023-08-01T00:44:38;98692.13;;;19.03;100.00
14232;BME280;7200;52.194;9.900;2023-08-01T00:47:04;98685.00;;;19.12;100.00
14232;BME280;7200;52.194;9.900;2023-08-01T00:49:29;98676.09;;;19.03;100.00
14232;BME280;7200;52.194;9.900;2023-08-01T00:51:54;98686.59;;;18.86;100.00
14232;BME280;7200;52.194;9.900;2023-08-01T00:54:20;98692.56;;;18.98;100.00
14232;BME280;7200;52.194;9.900;2023-08-01T00:56:45;98689.28;;;19.04;100.00
14232;BME280;7200;52.194;9.900;2023-08-01T00:59:12;98687.75;;;19.02;100.00
14232;BME280;7200;52.194;9.900;2023-08-01T01:01:37;98678.06;;;19.01;100.00
14232;BME280;7200;52.194;9.900;2023-08-01T01:04:03;98677.00;;;18.94;100.00
14232;BME280;7200;52.194;9.900;2023-08-01T01:06:41;98667.13;;;18.94;100.00
14232;BME280;7200;52.194;9.900;2023-08-01T01:09:19;98664.31;;;19.14;100.00
14232;BME280;7200;52.194;9.900;2023-08-01T01:11:46;98667.06;;;19.22;100.00
14232;BME280;7200;52.194;9.900;2023-08-01T01:14:11;98655.88;;;19.26;100.00
14232;BME280;7200;52.194;9.900;2023-08-01T01:16:37;98647.88;;;19.26;100.00
14232;BME280;7200;52.194;9.900;2023-08-01T01:19:07;98649.34;;;19.47;100.00
14232;BME280;7200;52.194;9.900;2023-08-01T01:24:45;98628.94;;;19.20;100.00
14232;BME280;7200;52.194;9.900;2023-08-01T01:27:12;98625.34;;;19.11;100.00
14232;BME280;7200;52.194;9.900;2023-08-01T01:29:38;98623.59;;;19.20;100.00
14232;BME280;7200;52.194;9.900;2023-08-01T01:32:05;98621.03;;;19.10;100.00
14232;BME280;7200;52.194;9.900;2023-08-01T01:34:31;98624.47;;;19.02;100.00
14232;BME280;7200;52.194;9.900;2023-08-01T01:36:56;98615.69;;;18.92;100.00
14232;BME280;7200;52.194;9.900;2023-08-01T01:39:21;98620.03;;;18.93;100.00
14232;BME280;7200;52.194;9.900;2023-08-01T01:41:47;98612.47;;;18.71;100.00
14232;BME280;7200;52.194;9.900;2023-08-01T01:44:12;98611.53;;;18.62;100.00
14232;BME280;7200;52.194;9.900;2023-08-01T01:46:37;98626.47;;;18.55;100.00
14232;BME280;7200;52.194;9.900;2023-08-01T01:49:03;98632.91;;;18.62;100.00
14232;BME280;7200;52.194;9.900;2023-08-01T01:51:31;98627.38;;;18.27;100.00
14232;BME280;7200;52.194;9.900;2023-08-01T01:53:56;98639.72;;;18.28;100.00
14232;BME280;7200;52.194;9.900;2023-08-01T01:56:22;98641.63;;;18.36;100.00
14232;BME280;7200;52.194;9.900;2023-08-01T01:58:48;98652.78;;;18.49;100.00
14232;BME280;7200;52.194;9.900;2023-08-01T02:01:13;98654.03;;;18.55;100.00
14232;BME280;7200;52.194;9.900;2023-08-01T02:03:38;98641.59;;;18.46;100.00
14232;BME280;7200;52.194;9.900;2023-08-01T02:06:04;98646.19;;;18.54;100.00
14232;BME280;7200;52.194;9.900;2023-08-01T02:08:29;98642.91;;;18.60;100.00
14232;BME280;7200;52.194;9.900;2023-08-01T02:10:55;98646.28;;;18.80;100.00
14232;BME280;7200;52.194;9.900;2023-08-01T02:13:26;98637.81;;;18.84;100.00
14232;BME280;7200;52.194;9.900;2023-08-01T02:15:52;98638.91;;;18.92;100.00
14232;BME280;7200;52.194;9.900;2023-08-01T02:18:17;98639.09;;;18.98;100.00
14232;BME280;7200;52.194;9.900;2023-08-01T02:20:42;98626.31;;;18.84;100.00
14232;BME280;7200;52.194;9.900;2023-08-01T02:23:08;98620.00;;;18.75;100.00
14232;BME280;7200;52.194;9.900;2023-08-01T02:25:38;98626.31;;;18.84;100.00
14232;BME280;7200;52.194;9.900;2023-08-01T02:28:04;98627.81;;;18.86;100.00
14232;BME280;7200;52.194;9.900;2023-08-01T02:30:29;98622.78;;;18.83;100.00
14232;BME280;7200;52.194;9.900;2023-08-01T02:32:54;98636.28;;;19.00;100.00
14232;BME280;7200;52.194;9.900;2023-08-01T02:35:19;98627.19;;;18.93;100.00
14232;BME280;7200;52.194;9.900;2023-08-01T02:37:45;98625.59;;;19.00;100.00
14232;BME280;7200;52.194;9.900;2023-08-01T02:40:10;98612.63;;;19.05;100.00
14232;BME280;7200;52.194;9.900;2023-08-01T02:42:36;98602.22;;;19.02;100.00
14232;BME280;7200;52.194;9.900;2023-08-01T02:45:01;98596.09;;;19.10;100.00
14232;BME280;7200;52.194;9.900;2023-08-01T02:47:26;98578.78;;;19.14;100.00
14232;BME280;7200;52.194;9.900;2023-08-01T02:49:52;98591.09;;;19.06;100.00
14232;BME280;7200;52.194;9.900;2023-08-01T02:52:17;98579.72;;;19.04;100.00
14232;BME280;7200;52.194;9.900;2023-08-01T02:54:42;98582.28;;;19.14;100.00
14232;BME280;7200;52.194;9.900;2023-08-01T02:57:07;98576.88;;;19.06;100.00
14232;BME280;7200;52.194;9.900;2023-08-01T02:59:33;98584.53;;;19.01;100.00
14232;BME280;7200;52.194;9.900;2023-08-01T03:01:59;98578.94;;;18.94;100.00
14232;BME280;7200;52.194;9.900;2023-08-01T03:04:24;98584.16;;;18.96;100.00
14232;BME280;7200;52.194;9.900;2023-08-01T03:06:49;98586.72;;;19.05;100.00
14232;BME280;7200;52.194;9.900;2023-08-01T03:09:15;98586.19;;;19.02;100.00
14232;BME280;7200;52.194;9.900;2023-08-01T03:11:41;98585.13;;;18.95;100.00
14232;BME280;7200;52.194;9.900;2023-08-01T03:14:06;98590.41;;;18.86;100.00
14232;BME280;7200;52.194;9.900;2023-08-01T03:16:31;98581.03;;;18.82;100.00
14232;BME280;7200;52.194;9.900;2023-08-01T03:18:57;98582.00;;;18.63;100.00
14232;BME280;7200;52.194;9.900;2023-08-01T03:21:22;98577.56;;;18.72;100.00
14232;BME280;7200;52.194;9.900;2023-08-01T03:23:47;98582.22;;;18.70;100.00
14232;BME280;7200;52.194;9.900;2023-08-01T03:26:13;98574.44;;;18.59;100.00
14232;BME280;7200;52.194;9.900;2023-08-01T03:28:40;98567.28;;;18.59;100.00
14232;BME280;7200;52.194;9.900;2023-08-01T03:31:05;98582.84;;;18.46;100.00
14232;BME280;7200;52.194;9.900;2023-08-01T03:33:32;98592.22;;;18.50;100.00
14232;BME280;7200;52.194;9.900;2023-08-01T03:36:01;98592.44;;;18.39;100.00
14232;BME280;7200;52.194;9.900;2023-08-01T03:38:26;98597.41;;;18.34;100.00
14232;BME280;7200;52.194;9.900;2023-08-01T03:40:51;98610.75;;;18.34;100.00
14232;BME280;7200;52.194;9.900;2023-08-01T03:43:17;98613.41;;;18.34;100.00
14232;BME280;7200;52.194;9.900;2023-08-01T03:45:42;98609.44;;;18.38;100.00
14232;BME280;7200;52.194;9.900;2023-08-01T03:48:07;98604.94;;;18.20;100.00
14232;BME280;7200;52.194;9.900;2023-08-01T03:50:32;98614.72;;;18.29;100.00
14232;BME280;7200;52.194;9.900;2023-08-01T03:52:58;98623.00;;;18.26;100.00
14232;BME280;7200;52.194;9.900;2023-08-01T03:55:23;98618.28;;;18.20;100.00
14232;BME280;7200;52.194;9.900;2023-08-01T03:57:48;98625.78;;;18.07;100.00
14232;BME280;7200;52.194;9.900;2023-08-01T04:00:14;98634.03;;;18.14;100.00
14232;BME280;7200;52.194;9.900;2023-08-01T04:02:42;98632.22;;;18.14;100.00
14232;BME280;7200;52.194;9.900;2023-08-01T04:05:08;98645.56;;;18.14;100.00
14232;BME280;7200;52.194;9.900;2023-08-01T04:07:37;98665.66;;;18.36;100.00
14232;BME280;7200;52.194;9.900;2023-08-01T04:10:03;98656.38;;;18.40;100.00
14232;BME280;7200;52.194;9.900;2023-08-01T04:12:31;98654.75;;;18.29;100.00
14232;BME280;7200;52.194;9.900;2023-08-01T04:14:57;98675.59;;;18.44;100.00
14232;BME280;7200;52.194;9.900;2023-08-01T04:17:22;98674.06;;;18.41;100.00
14232;BME280;7200;52.194;9.900;2023-08-01T04:19:47;98664.97;;;18.34;100.00
14232;BME280;7200;52.194;9.900;2023-08-01T04:22:13;98656.59;;;18.29;100.00
14232;BME280;7200;52.194;9.900;2023-08-01T04:24:38;98659.78;;;18.33;100.00
14232;BME280;7200;52.194;9.900;2023-08-01T04:27:03;98664.91;;;18.44;100.00
14232;BME280;7200;52.194;9.900;2023-08-01T04:29:29;98659.47;;;18.36;100.00
14232;BME280;7200;52.194;9.900;2023-08-01T04:31:56;98651.41;;;18.27;100.00
14232;BME280;7200;52.194;9.900;2023-08-01T04:34:21;98645.09;;;18.19;100.00
14232;BME280;7200;52.194;9.900;2023-08-01T04:36:46;98646.00;;;18.09;100.00
14232;BME280;7200;52.194;9.900;2023-08-01T04:39:11;98641.16;;;17.95;100.00
14232;BME280;7200;52.194;9.900;2023-08-01T04:41:37;98642.69;;;17.98;100.00
14232;BME280;7200;52.194;9.900;2023-08-01T04:44:02;98646.19;;;17.98;100.00
14232;BME280;7200;52.194;9.900;2023-08-01T04:46:27;98651.66;;;17.97;100.00
14232;BME280;7200;52.194;9.900;2023-08-01T04:48:53;98652.91;;;18.02;100.00
14232;BME280;7200;52.194;9.900;2023-08-01T04:51:18;98656.13;;;18.06;100.00
14232;BME280;7200;52.194;9.900;2023-08-01T04:53:43;98658.22;;;18.12;100.00
14232;BME280;7200;52.194;9.900;2023-08-01T04:56:08;98664.94;;;18.16;100.00
14232;BME280;7200;52.194;9.900;2023-08-01T04:58:34;98662.84;;;18.10;100.00
14232;BME280;7200;52.194;9.900;2023-08-01T05:00:59;98662.00;;;18.09;100.00
14232;BME280;7200;52.194;9.900;2023-08-01T05:03:24;98670.22;;;18.26;100.00
14232;BME280;7200;52.194;9.900;2023-08-01T05:05:49;98669.97;;;18.19;100.00
14232;BME280;7200;52.194;9.900;2023-08-01T05:08:15;98679.47;;;18.32;100.00
14232;BME280;7200;52.194;9.900;2023-08-01T05:10:40;98674.28;;;18.30;100.00
14232;BME280;7200;52.194;9.900;2023-08-01T05:13:05;98675.91;;;18.13;100.00
14232;BME280;7200;52.194;9.900;2023-08-01T05:15:31;98670.28;;;18.16;100.00
14232;BME280;7200;52.194;9.900;2023-08-01T05:17:56;98668.97;;;18.20;100.00
14232;BME280;7200;52.194;9.900;2023-08-01T05:20:21;98668.56;;;18.15;100.00
14232;BME280;7200;52.194;9.900;2023-08-01T05:22:46;98678.28;;;18.16;100.00
14232;BME280;7200;52.194;9.900;2023-08-01T05:25:12;98672.06;;;18.16;100.00
14232;BME280;7200;52.194;9.900;2023-08-01T05:27:37;98671.03;;;17.99;100.00
14232;BME280;7200;52.194;9.900;2023-08-01T05:30:03;98667.84;;;17.76;100.00
14232;BME280;7200;52.194;9.900;2023-08-01T05:32:28;98677.41;;;17.68;100.00
14232;BME280;7200;52.194;9.900;2023-08-01T05:34:53;98679.53;;;17.84;100.00
14232;BME280;7200;52.194;9.900;2023-08-01T05:37:18;98679.53;;;17.84;100.00
14232;BME280;7200;52.194;9.900;2023-08-01T05:39:44;98683.25;;;17.82;100.00
14232;BME280;7200;52.194;9.900;2023-08-01T05:42:09;98692.00;;;17.94;100.00
14232;BME280;7200;52.194;9.900;2023-08-01T05:44:34;98681.06;;;17.77;100.00
14232;BME280;7200;52.194;9.900;2023-08-01T05:47:00;98686.25;;;17.88;100.00
14232;BME280;7200;52.194;9.900;2023-08-01T05:49:25;98686.63;;;18.03;100.00
14232;BME280;7200;52.194;9.900;2023-08-01T05:51:50;98679.44;;;18.04;100.00
14232;BME280;7200;52.194;9.900;2023-08-01T05:54:16;98684.41;;;17.89;100.00
14232;BME280;7200;52.194;9.900;2023-08-01T05:56:41;98684.41;;;17.89;100.00
14232;BME280;7200;52.194;9.900;2023-08-01T05:59:06;98677.41;;;17.68;100.00
14232;BME280;7200;52.194;9.900;2023-08-01T06:01:31;98679.06;;;17.79;100.00
14232;BME280;7200;52.194;9.900;2023-08-01T06:03:57;98676.41;;;17.79;100.00
14232;BME280;7200;52.194;9.900;2023-08-01T06:06:22;98666.75;;;17.78;100.00
14232;BME280;7200;52.194;9.900;2023-08-01T06:08:47;98665.19;;;17.76;100.00
14232;BME280;7200;52.194;9.900;2023-08-01T06:11:13;98653.41;;;17.68;100.00
14232;BME280;7200;52.194;9.900;2023-08-01T06:13:38;98649.78;;;17.69;100.00
14232;BME280;7200;52.194;9.900;2023-08-01T06:16:03;98657.50;;;17.63;100.00
14232;BME280;7200;52.194;9.900;2023-08-01T06:18:29;98656.25;;;17.67;100.00
14232;BME280;7200;52.194;9.900;2023-08-01T06:20:54;98661.84;;;17.64;100.00
14232;BME280;7200;52.194;9.900;2023-08-01T06:23:19;98654.81;;;17.63;100.00
14232;BME280;7200;52.194;9.900;2023-08-01T06:25:44;98648.81;;;17.61;100.00
14232;BME280;7200;52.194;9.900;2023-08-01T06:28:10;98656.06;;;17.68;100.00
14232;BME280;7200;52.194;9.900;2023-08-01T06:30:35;98668.41;;;17.79;100.00
14232;BME280;7200;52.194;9.900;2023-08-01T06:33:00;98672.22;;;17.77;100.00
14232;BME280;7200;52.194;9.900;2023-08-01T06:35:26;98670.09;;;17.80;100.00
14232;BME280;7200;52.194;9.900;2023-08-01T06:37:51;98681.88;;;17.97;100.00
14232;BME280;7200;52.194;9.900;2023-08-01T06:40:16;98682.00;;;17.96;100.00
14232;BME280;7200;52.194;9.900;2023-08-01T06:42:42;98685.94;;;18.01;100.00
14232;BME280;7200;52.194;9.900;2023-08-01T06:45:08;98698.91;;;18.24;100.00
14232;BME280;7200;52.194;9.900;2023-08-01T06:47:33;98688.09;;;18.16;100.00
14232;BME280;7200;52.194;9.900;2023-08-01T06:49:58;98693.41;;;18.25;100.00
14232;BME280;7200;52.194;9.900;2023-08-01T06:52:24;98693.84;;;18.21;100.00
14232;BME280;7200;52.194;9.900;2023-08-01T06:54:49;98692.06;;;18.39;100.00
14232;BME280;7200;52.194;9.900;2023-08-01T06:57:14;98693.41;;;18.25;100.00
14232;BME280;7200;52.194;9.900;2023-08-01T06:59:39;98690.22;;;18.40;100.00
14232;BME280;7200;52.194;9.900;2023-08-01T07:02:05;98672.41;;;18.13;100.00
14232;BME280;7200;52.194;9.900;2023-08-01T07:04:31;98672.59;;;18.01;100.00
14232;BME280;7200;52.194;9.900;2023-08-01T07:06:56;98673.88;;;17.87;100.00
14232;BME280;7200;52.194;9.900;2023-08-01T07:09:21;98688.88;;;17.98;100.00
14232;BME280;7200;52.194;9.900;2023-08-01T07:11:46;98684.78;;;18.04;100.00
14232;BME280;7200;52.194;9.900;2023-08-01T07:14:12;98689.88;;;17.97;100.00
14232;BME280;7200;52.194;9.900;2023-08-01T07:16:37;98685.78;;;18.03;100.00
14232;BME280;7200;52.194;9.900;2023-08-01T07:19:02;98686.72;;;18.12;100.00
14232;BME280;7200;52.194;9.900;2023-08-01T07:21:28;98689.75;;;18.26;100.00
14232;BME280;7200;52.194;9.900;2023-08-01T07:23:54;98684.53;;;18.35;100.00
14232;BME280;7200;52.194;9.900;2023-08-01T07:26:19;98677.69;;;18.50;100.00
14232;BME280;7200;52.194;9.900;2023-08-01T07:28:44;98661.88;;;18.39;100.00
14232;BME280;7200;52.194;9.900;2023-08-01T07:31:10;98658.78;;;18.34;100.00
14232;BME280;7200;52.194;9.900;2023-08-01T07:33:35;98650.78;;;18.34;100.00
14232;BME280;7200;52.194;9.900;2023-08-01T07:36:01;98649.81;;;18.35;100.00
14232;BME280;7200;52.194;9.900;2023-08-01T07:38:27;98638.72;;;18.29;100.00
14232;BME280;7200;52.194;9.900;2023-08-01T07:40:53;98652.22;;;18.28;100.00
14232;BME280;7200;52.194;9.900;2023-08-01T07:43:18;98640.72;;;18.27;100.00
14232;BME280;7200;52.194;9.900;2023-08-01T07:45:44;98636.91;;;18.30;100.00
14232;BME280;7200;52.194;9.900;2023-08-01T07:48:09;98632.78;;;18.36;100.00
14232;BME280;7200;52.194;9.900;2023-08-01T07:50:35;98640.59;;;18.47;100.00
14232;BME280;7200;52.194;9.900;2023-08-01T07:53:00;98642.50;;;18.37;100.00
14232;BME280;7200;52.194;9.900;2023-08-01T07:55:25;98647.91;;;18.45;100.00
14232;BME280;7200;52.194;9.900;2023-08-01T07:57:51;98629.91;;;18.47;100.00
14232;BME280;7200;52.194;9.900;2023-08-01T08:00:16;98632.16;;;18.52;100.00
14232;BME280;7200;52.194;9.900;2023-08-01T08:02:42;98624.16;;;18.42;100.00
14232;BME280;7200;52.194;9.900;2023-08-01T08:05:09;98617.97;;;18.23;100.00
14232;BME280;7200;52.194;9.900;2023-08-01T08:07:35;98601.63;;;18.08;100.00
14232;BME280;7200;52.194;9.900;2023-08-01T08:10:01;98612.13;;;18.38;100.00
14232;BME280;7200;52.194;9.900;2023-08-01T08:12:26;98611.06;;;18.48;100.00
14232;BME280;7200;52.194;9.900;2023-08-01T08:14:51;98614.81;;;18.56;100.00
14232;BME280;7200;52.194;9.900;2023-08-01T08:17:17;98610.38;;;18.64;100.00
14232;BME280;7200;52.194;9.900;2023-08-01T08:19:42;98601.38;;;18.65;100.00
14232;BME280;7200;52.194;9.900;2023-08-01T08:22:07;98600.03;;;18.97;100.00
14232;BME280;7200;52.194;9.900;2023-08-01T08:24:32;98593.81;;;19.15;100.00
14232;BME280;7200;52.194;9.900;2023-08-01T08:26:58;98581.28;;;19.41;100.00
14232;BME280;7200;52.194;9.900;2023-08-01T08:29:23;98568.09;;;19.14;100.00
14232;BME280;7200;52.194;9.900;2023-08-01T08:31:49;98558.22;;;19.14;100.00
14232;BME280;7200;52.194;9.900;2023-08-01T08:34:14;98547.66;;;19.04;100.00
14232;BME280;7200;52.194;9.900;2023-08-01T08:36:39;98535.38;;;18.94;100.00
14232;BME280;7200;52.194;9.900;2023-08-01T08:39:05;98537.03;;;18.95;100.00
14232;BME280;7200;52.194;9.900;2023-08-01T08:41:38;98529.91;;;19.03;100.00
14232;BME280;7200;52.194;9.900;2023-08-01T08:44:06;98532.28;;;19.33;100.00
14232;BME280;7200;52.194;9.900;2023-08-01T08:46:33;98530.91;;;19.29;100.00
14232;BME280;7200;52.194;9.900;2023-08-01T08:49:02;98528.41;;;19.27;100.00
14232;BME280;7200;52.194;9.900;2023-08-01T08:51:29;98517.53;;;19.29;100.00
14232;BME280;7200;52.194;9.900;2023-08-01T08:53:56;98503.94;;;19.48;100.00
14232;BME280;7200;52.194;9.900;2023-08-01T08:56:21;98499.56;;;19.73;100.00
14232;BME280;7200;52.194;9.900;2023-08-01T08:58:47;98499.00;;;20.12;100.00
14232;BME280;7200;52.194;9.900;2023-08-01T09:01:13;98481.63;;;20.33;100.00
14232;BME280;7200;52.194;9.900;2023-08-01T09:03:39;98454.16;;;20.47;100.00
14232;BME280;7200;52.194;9.900;2023-08-01T09:06:10;98438.59;;;20.51;100.00
14232;BME280;7200;52.194;9.900;2023-08-01T09:08:39;98397.59;;;20.17;100.00
14232;BME280;7200;52.194;9.900;2023-08-01T09:11:05;98396.25;;;20.13;100.00
14232;BME280;7200;52.194;9.900;2023-08-01T09:13:31;98390.56;;;19.92;100.00
14232;BME280;7200;52.194;9.900;2023-08-01T09:15:56;98406.19;;;19.70;100.00
14232;BME280;7200;52.194;9.900;2023-08-01T09:18:21;98405.25;;;19.79;100.00
14232;BME280;7200;52.194;9.900;2023-08-01T09:20:48;98398.34;;;19.69;100.00
14232;BME280;7200;52.194;9.900;2023-08-01T09:23:14;98402.56;;;19.79;100.00
14232;BME280;7200;52.194;9.900;2023-08-01T09:25:40;98393.03;;;19.85;100.00
14232;BME280;7200;52.194;9.900;2023-08-01T09:28:20;98381.84;;;20.22;100.00
14232;BME280;7200;52.194;9.900;2023-08-01T09:30:53;98377.53;;;20.21;100.00
14232;BME280;7200;52.194;9.900;2023-08-01T09:33:20;98366.75;;;20.54;100.00
14232;BME280;7200;52.194;9.900;2023-08-01T09:35:48;98361.72;;;20.59;100.00
14232;BME280;7200;52.194;9.900;2023-08-01T09:38:14;98363.38;;;20.85;100.00
14232;BME280;7200;52.194;9.900;2023-08-01T09:40:41;98357.41;;;20.67;100.00
14232;BME280;7200;52.194;9.900;2023-08-01T09:43:07;98366.19;;;20.92;100.00
14232;BME280;7200;52.194;9.900;2023-08-01T09:45:32;98352.88;;;20.51;100.00
14232;BME280;7200;52.194;9.900;2023-08-01T09:47:59;98358.75;;;20.38;100.00
14232;BME280;7200;52.194;9.900;2023-08-01T09:50:25;98358.56;;;20.64;100.00
14232;BME280;7200;52.194;9.900;2023-08-01T09:52:50;98362.81;;;20.98;100.00
14232;BME280;7200;52.194;9.900;2023-08-01T09:55:26;98349.44;;;20.90;100.00
14232;BME280;7200;52.194;9.900;2023-08-01T09:57:57;98362.16;;;20.96;100.00
14232;BME280;7200;52.194;9.900;2023-08-01T10:00:22;98362.63;;;20.99;100.00
14232;BME280;7200;52.194;9.900;2023-08-01T10:02:49;98351.97;;;20.83;100.00
14232;BME280;7200;52.194;9.900;2023-08-01T10:05:15;98362.03;;;21.20;100.00
14232;BME280;7200;52.194;9.900;2023-08-01T10:07:42;98367.34;;;21.37;100.00
14232;BME280;7200;52.194;9.900;2023-08-01T10:10:09;98375.38;;;21.45;100.00
14232;BME280;7200;52.194;9.900;2023-08-01T10:12:35;98383.59;;;21.35;100.00
14232;BME280;7200;52.194;9.900;2023-08-01T10:15:01;98392.47;;;21.05;100.00
14232;BME280;7200;52.194;9.900;2023-08-01T10:17:29;98392.94;;;21.08;100.00
14232;BME280;7200;52.194;9.900;2023-08-01T10:19:55;98392.88;;;20.85;100.00
14232;BME280;7200;52.194;9.900;2023-08-01T10:22:21;98396.69;;;20.91;100.00
14232;BME280;7200;52.194;9.900;2023-08-01T10:24:47;98385.44;;;20.95;100.00
14232;BME280;7200;52.194;9.900;2023-08-01T10:27:21;98394.41;;;21.19;100.00
14232;BME280;7200;52.194;9.900;2023-08-01T10:30:06;98392.69;;;21.26;100.00
14232;BME280;7200;52.194;9.900;2023-08-01T10:32:38;98411.31;;;21.67;100.00
14232;BME280;7200;52.194;9.900;2023-08-01T10:35:04;98406.34;;;21.56;100.00
14232;BME280;7200;52.194;9.900;2023-08-01T10:37:40;98409.09;;;21.71;100.00
14232;BME280;7200;52.194;9.900;2023-08-01T10:40:06;98407.66;;;21.60;100.00
14232;BME280;7200;52.194;9.900;2023-08-01T10:42:42;98408.63;;;21.28;100.00
14232;BME280;7200;52.194;9.900;2023-08-01T10:45:20;98424.72;;;21.28;100.00
14232;BME280;7200;52.194;9.900;2023-08-01T10:47:46;98442.38;;;21.06;100.00
14232;BME280;7200;52.194;9.900;2023-08-01T10:50:16;98425.63;;;21.12;100.00
14232;BME280;7200;52.194;9.900;2023-08-01T10:52:42;98431.19;;;21.42;100.00
14232;BME280;7200;52.194;9.900;2023-08-01T10:55:07;98429.97;;;21.61;100.00
14232;BME280;7200;52.194;9.900;2023-08-01T10:57:35;98431.66;;;21.14;100.00
14232;BME280;7200;52.194;9.900;2023-08-01T11:00:02;98420.66;;;21.32;100.00
14232;BME280;7200;52.194;9.900;2023-08-01T11:02:30;98419.19;;;21.69;100.00
14232;BME280;7200;52.194;9.900;2023-08-01T11:04:56;98434.75;;;22.51;100.00
14232;BME280;7200;52.194;9.900;2023-08-01T11:07:21;98441.13;;;22.50;100.00
14232;BME280;7200;52.194;9.900;2023-08-01T11:09:47;98442.13;;;22.03;100.00
14232;BME280;7200;52.194;9.900;2023-08-01T11:12:12;98453.97;;;21.54;100.00
14232;BME280;7200;52.194;9.900;2023-08-01T11:14:37;98451.13;;;21.55;100.00
14232;BME280;7200;52.194;9.900;2023-08-01T11:17:03;98455.25;;;21.27;100.00
14232;BME280;7200;52.194;9.900;2023-08-01T11:19:29;98462.09;;;21.29;100.00
14232;BME280;7200;52.194;9.900;2023-08-01T11:21:56;98469.09;;;21.47;100.00
14232;BME280;7200;52.194;9.900;2023-08-01T11:24:23;98469.69;;;21.65;100.00
14232;BME280;7200;52.194;9.900;2023-08-01T11:26:49;98474.69;;;22.00;100.00
14232;BME280;7200;52.194;9.900;2023-08-01T11:29:17;98471.16;;;21.76;100.00
14232;BME280;7200;52.194;9.900;2023-08-01T11:34:18;98489.56;;;21.79;100.00
14232;BME280;7200;52.194;9.900;2023-08-01T11:36:43;98497.22;;;21.59;100.00
14232;BME280;7200;52.194;9.900;2023-08-01T11:39:11;98491.97;;;21.74;100.00
14232;BME280;7200;52.194;9.900;2023-08-01T11:41:38;98496.84;;;22.02;100.00
14232;BME280;7200;52.194;9.900;2023-08-01T11:44:04;98499.44;;;21.87;100.00
14232;BME280;7200;52.194;9.900;2023-08-01T11:46:34;98520.13;;;22.09;100.00
14232;BME280;7200;52.194;9.900;2023-08-01T11:49:01;98508.75;;;21.68;100.00
14232;BME280;7200;52.194;9.900;2023-08-01T11:51:27;98522.22;;;21.60;100.00
14232;BME280;7200;52.194;9.900;2023-08-01T11:54:00;98527.59;;;21.43;100.00
14232;BME280;7200;52.194;9.900;2023-08-01T11:56:26;98511.03;;;21.48;100.00
14232;BME280;7200;52.194;9.900;2023-08-01T11:58:51;98524.47;;;21.15;100.00
14232;BME280;7200;52.194;9.900;2023-08-01T12:01:16;98535.38;;;21.05;100.00
14232;BME280;7200;52.194;9.900;2023-08-01T12:03:53;98542.09;;;21.01;100.00
14232;BME280;7200;52.194;9.900;2023-08-01T12:06:20;98534.72;;;21.03;100.00
14232;BME280;7200;52.194;9.900;2023-08-01T12:08:50;98550.31;;;20.83;100.00
14232;BME280;7200;52.194;9.900;2023-08-01T12:11:26;98550.59;;;20.39;100.00
14232;BME280;7200;52.194;9.900;2023-08-01T12:14:01;98542.34;;;20.24;100.00
14232;BME280;7200;52.194;9.900;2023-08-01T12:16:27;98550.63;;;19.88;100.00
14232;BME280;7200;52.194;9.900;2023-08-01T12:18:52;98537.69;;;19.75;100.00
14232;BME280;7200;52.194;9.900;2023-08-01T12:21:18;98533.41;;;19.64;100.00
14232;BME280;7200;52.194;9.900;2023-08-01T12:23:43;98520.50;;;19.78;100.00
14232;BME280;7200;52.194;9.900;2023-08-01T12:26:08;98521.03;;;19.90;100.00
14232;BME280;7200;52.194;9.900;2023-08-01T12:28:34;98502.16;;;20.08;100.00
14232;BME280;7200;52.194;9.900;2023-08-01T12:31:00;98496.69;;;20.42;100.00
14232;BME280;7200;52.194;9.900;2023-08-01T12:33:25;98497.75;;;20.74;100.00
14232;BME280;7200;52.194;9.900;2023-08-01T12:35:50;98491.44;;;21.23;100.00
14232;BME280;7200;52.194;9.900;2023-08-01T12:38:16;98494.56;;;21.43;100.00
14232;BME280;7200;52.194;9.900;2023-08-01T12:40:41;98514.66;;;21.63;100.00
14232;BME280;7200;52.194;9.900;2023-08-01T12:43:06;98534.84;;;21.26;100.00
14232;BME280;7200;52.194;9.900;2023-08-01T12:45:32;98531.19;;;21.11;100.00
14232;BME280;7200;52.194;9.900;2023-08-01T12:47:57;98543.06;;;21.25;100.00
14232;BME280;7200;52.194;9.900;2023-08-01T12:50:22;98552.97;;;21.16;100.00
14232;BME280;7200;52.194;9.900;2023-08-01T12:52:47;98560.88;;;20.93;100.00
14232;BME280;7200;52.194;9.900;2023-08-01T12:55:13;98560.56;;;20.79;100.00
14232;BME280;7200;52.194;9.900;2023-08-01T12:57:38;98562.69;;;20.51;100.00
14232;BME280;7200;52.194;9.900;2023-08-01T13:00:04;98563.78;;;20.32;100.00